sensor_id;sensor_type;location;lat;lon;timestamp;P1;durP1;ratioP1;P2;durP2;ratioP2
34152;SDS011;20426;48.372;10.888;2023-01-28T00:00:05;19.98;;;10.70;;
34152;SDS011;20426;48.372;10.888;2023-01-28T00:00:37;17.27;;;10.63;;
34152;SDS011;20426;48.372;10.888;2023-01-28T00:01:09;20.08;;;10.88;;
34152;SDS011;20426;48.372;10.888;2023-01-28T00:01:42;18.65;;;10.50;;
34152;SDS011;20426;48.372;10.888;2023-01-28T00:02:12;21.75;;;11.50;;
34152;SDS011;20426;48.372;10.888;2023-01-28T00:02:43;19.58;;;10.90;;
34152;SDS011;20426;48.372;10.888;2023-01-28T00:03:17;18.90;;;10.75;;
34152;SDS011;20426;48.372;10.888;2023-01-28T00:03:48;18.25;;;10.45;;
34152;SDS011;20426;48.372;10.888;2023-01-28T00:04:22;19.27;;;10.80;;
34152;SDS011;20426;48.372;10.888;2023-01-28T00:04:53;20.30;;;10.57;;
34152;SDS011;20426;48.372;10.888;2023-01-28T00:05:24;19.20;;;10.63;;
34152;SDS011;20426;48.372;10.888;2023-01-28T00:06:00;17.67;;;10.32;;
34152;SDS011;20426;48.372;10.888;2023-01-28T00:06:49;15.93;;;9.75;;
34152;SDS011;20426;48.372;10.888;2023-01-28T00:07:19;14.65;;;8.80;;
34152;SDS011;20426;48.372;10.888;2023-01-28T00:07:50;20.42;;;10.45;;
34152;SDS011;20426;48.372;10.888;2023-01-28T00:08:21;19.55;;;9.95;;
34152;SDS011;20426;48.372;10.888;2023-01-28T00:08:52;17.92;;;10.70;;
34152;SDS011;20426;48.372;10.888;2023-01-28T00:09:25;23.38;;;10.68;;
34152;SDS011;20426;48.372;10.888;2023-01-28T00:09:55;20.27;;;10.07;;
34152;SDS011;20426;48.372;10.888;2023-01-28T00:10:26;23.30;;;11.65;;
34152;SDS011;20426;48.372;10.888;2023-01-28T00:10:57;18.73;;;10.45;;
34152;SDS011;20426;48.372;10.888;2023-01-28T00:11:29;22.48;;;10.77;;
34152;SDS011;20426;48.372;10.888;2023-01-28T00:12:00;19.58;;;10.77;;
34152;SDS011;20426;48.372;10.888;2023-01-28T00:12:31;21.83;;;10.65;;
34152;SDS011;20426;48.372;10.888;2023-01-28T00:13:02;22.50;;;11.38;;
34152;SDS011;20426;48.372;10.888;2023-01-28T00:13:33;20.92;;;10.57;;
34152;SDS011;20426;48.372;10.888;2023-01-28T00:14:04;19.55;;;10.52;;
34152;SDS011;20426;48.372;10.888;2023-01-28T00:14:35;20.02;;;10.68;;
34152;SDS011;20426;48.372;10.888;2023-01-28T00:15:06;24.33;;;11.52;;
34152;SDS011;20426;48.372;10.888;2023-01-28T00:15:37;18.88;;;10.82;;
34152;SDS011;20426;48.372;10.888;2023-01-28T00:16:08;23.05;;;10.85;;
34152;SDS011;20426;48.372;10.888;2023-01-28T00:16:39;18.17;;;10.05;;
34152;SDS011;20426;48.372;10.888;2023-01-28T00:17:10;21.63;;;10.85;;
34152;SDS011;20426;48.372;10.888;2023-01-28T00:17:41;19.10;;;10.98;;
34152;SDS011;20426;48.372;10.888;2023-01-28T00:18:11;20.00;;;11.40;;
34152;SDS011;20426;48.372;10.888;2023-01-28T00:18:42;17.42;;;10.10;;
34152;SDS011;20426;48.372;10.888;2023-01-28T00:19:13;21.23;;;11.65;;
34152;SDS011;20426;48.372;10.888;2023-01-28T00:19:44;23.27;;;11.57;;
34152;SDS011;20426;48.372;10.888;2023-01-28T00:20:15;21.80;;;11.07;;
34152;SDS011;20426;48.372;10.888;2023-01-28T00:20:54;18.20;;;10.57;;
34152;SDS011;20426;48.372;10.888;2023-01-28T00:21:26;19.58;;;10.43;;
34152;SDS011;20426;48.372;10.888;2023-01-28T00:21:57;19.20;;;10.65;;
34152;SDS011;20426;48.372;10.888;2023-01-28T00:22:28;19.20;;;10.60;;
34152;SDS011;20426;48.372;10.888;2023-01-28T00:22:58;20.70;;;11.15;;
34152;SDS011;20426;48.372;10.888;2023-01-28T00:23:33;21.88;;;11.55;;
34152;SDS011;20426;48.372;10.888;2023-01-28T00:24:05;21.15;;;11.45;;
34152;SDS011;20426;48.372;10.888;2023-01-28T00:24:38;20.25;;;10.63;;
34152;SDS011;20426;48.372;10.888;2023-01-28T00:25:09;17.30;;;9.63;;
34152;SDS011;20426;48.372;10.888;2023-01-28T00:25:39;19.92;;;10.27;;
34152;SDS011;20426;48.372;10.888;2023-01-28T00:26:11;20.83;;;11.82;;
34152;SDS011;20426;48.372;10.888;2023-01-28T00:26:43;19.98;;;10.43;;
34152;SDS011;20426;48.372;10.888;2023-01-28T00:27:14;23.13;;;10.93;;
34152;SDS011;20426;48.372;10.888;2023-01-28T00:27:45;22.90;;;11.82;;
34152;SDS011;20426;48.372;10.888;2023-01-28T00:28:16;23.73;;;10.82;;
34152;SDS011;20426;48.372;10.888;2023-01-28T00:28:46;19.08;;;10.52;;
34152;SDS011;20426;48.372;10.888;2023-01-28T00:29:17;21.55;;;10.82;;
34152;SDS011;20426;48.372;10.888;2023-01-28T00:29:48;19.85;;;11.68;;
34152;SDS011;20426;48.372;10.888;2023-01-28T00:30:19;19.10;;;10.50;;
34152;SDS011;20426;48.372;10.888;2023-01-28T00:30:50;19.00;;;10.63;;
34152;SDS011;20426;48.372;10.888;2023-01-28T00:31:22;16.88;;;10.23;;
34152;SDS011;20426;48.372;10.888;2023-01-28T00:31:55;22.20;;;11.85;;
34152;SDS011;20426;48.372;10.888;2023-01-28T00:32:25;21.27;;;11.40;;
34152;SDS011;20426;48.372;10.888;2023-01-28T00:32:56;20.88;;;11.05;;
34152;SDS011;20426;48.372;10.888;2023-01-28T00:33:27;22.63;;;11.32;;
34152;SDS011;20426;48.372;10.888;2023-01-28T00:33:58;19.15;;;10.85;;
34152;SDS011;20426;48.372;10.888;2023-01-28T00:34:29;22.63;;;10.68;;
34152;SDS011;20426;48.372;10.888;2023-01-28T00:35:00;22.77;;;11.13;;
34152;SDS011;20426;48.372;10.888;2023-01-28T00:35:30;18.95;;;11.00;;
34152;SDS011;20426;48.372;10.888;2023-01-28T00:36:02;17.77;;;9.80;;
34152;SDS011;20426;48.372;10.888;2023-01-28T00:36:35;18.15;;;10.27;;
34152;SDS011;20426;48.372;10.888;2023-01-28T00:37:08;19.80;;;11.07;;
34152;SDS011;20426;48.372;10.888;2023-01-28T00:37:39;19.02;;;11.07;;
34152;SDS011;20426;48.372;10.888;2023-01-28T00:38:09;19.08;;;10.02;;
34152;SDS011;20426;48.372;10.888;2023-01-28T00:38:40;21.42;;;10.57;;
34152;SDS011;20426;48.372;10.888;2023-01-28T00:39:14;19.33;;;10.35;;
34152;SDS011;20426;48.372;10.888;2023-01-28T00:39:45;20.98;;;10.60;;
34152;SDS011;20426;48.372;10.888;2023-01-28T00:40:16;21.17;;;10.60;;
34152;SDS011;20426;48.372;10.888;2023-01-28T00:40:47;22.35;;;11.30;;
34152;SDS011;20426;48.372;10.888;2023-01-28T00:41:18;20.45;;;10.57;;
34152;SDS011;20426;48.372;10.888;2023-01-28T00:41:51;21.25;;;9.63;;
34152;SDS011;20426;48.372;10.888;2023-01-28T00:42:22;19.45;;;10.63;;
34152;SDS011;20426;48.372;10.888;2023-01-28T00:42:53;21.67;;;11.15;;
34152;SDS011;20426;48.372;10.888;2023-01-28T00:43:24;18.02;;;9.50;;
34152;SDS011;20426;48.372;10.888;2023-01-28T00:43:55;20.73;;;10.65;;
34152;SDS011;20426;48.372;10.888;2023-01-28T00:44:26;18.80;;;10.85;;
34152;SDS011;20426;48.372;10.888;2023-01-28T00:44:57;17.80;;;10.90;;
34152;SDS011;20426;48.372;10.888;2023-01-28T00:45:28;18.40;;;10.88;;
34152;SDS011;20426;48.372;10.888;2023-01-28T00:45:59;18.50;;;9.93;;
34152;SDS011;20426;48.372;10.888;2023-01-28T00:46:29;21.17;;;11.15;;
34152;SDS011;20426;48.372;10.888;2023-01-28T00:47:00;17.92;;;9.82;;
34152;SDS011;20426;48.372;10.888;2023-01-28T00:47:31;22.10;;;10.82;;
34152;SDS011;20426;48.372;10.888;2023-01-28T00:48:02;20.92;;;11.25;;
34152;SDS011;20426;48.372;10.888;2023-01-28T00:48:33;19.38;;;9.82;;
34152;SDS011;20426;48.372;10.888;2023-01-28T00:49:05;18.80;;;10.68;;
34152;SDS011;20426;48.372;10.888;2023-01-28T00:49:36;21.55;;;10.60;;
34152;SDS011;20426;48.372;10.888;2023-01-28T00:50:07;20.10;;;10.25;;
34152;SDS011;20426;48.372;10.888;2023-01-28T00:50:38;21.70;;;10.77;;
34152;SDS011;20426;48.372;10.888;2023-01-28T00:51:09;16.85;;;9.95;;
34152;SDS011;20426;48.372;10.888;2023-01-28T00:51:42;16.13;;;10.00;;
34152;SDS011;20426;48.372;10.888;2023-01-28T00:52:13;21.55;;;10.88;;
34152;SDS011;20426;48.372;10.888;2023-01-28T00:52:43;19.65;;;10.52;;
34152;SDS011;20426;48.372;10.888;2023-01-28T00:53:14;15.23;;;9.63;;
34152;SDS011;20426;48.372;10.888;2023-01-28T00:53:45;19.23;;;9.93;;
34152;SDS011;20426;48.372;10.888;2023-01-28T00:54:17;17.63;;;9.38;;
34152;SDS011;20426;48.372;10.888;2023-01-28T00:54:47;16.90;;;10.15;;
34152;SDS011;20426;48.372;10.888;2023-01-28T00:55:18;18.85;;;10.27;;
34152;SDS011;20426;48.372;10.888;2023-01-28T00:55:50;21.17;;;9.90;;
34152;SDS011;20426;48.372;10.888;2023-01-28T00:56:21;19.65;;;9.63;;
34152;SDS011;20426;48.372;10.888;2023-01-28T00:56:52;20.00;;;10.90;;
34152;SDS011;20426;48.372;10.888;2023-01-28T00:57:23;18.35;;;9.95;;
34152;SDS011;20426;48.372;10.888;2023-01-28T00:57:54;22.90;;;11.10;;
34152;SDS011;20426;48.372;10.888;2023-01-28T00:58:25;18.30;;;10.20;;
34152;SDS011;20426;48.372;10.888;2023-01-28T00:58:55;18.35;;;10.23;;
34152;SDS011;20426;48.372;10.888;2023-01-28T00:59:26;19.48;;;9.55;;
34152;SDS011;20426;48.372;10.888;2023-01-28T00:59:57;16.85;;;9.75;;
34152;SDS011;20426;48.372;10.888;2023-01-28T01:00:28;19.98;;;9.68;;
34152;SDS011;20426;48.372;10.888;2023-01-28T01:01:33;19.38;;;10.93;;
34152;SDS011;20426;48.372;10.888;2023-01-28T01:01:56;19.38;;;9.75;;
34152;SDS011;20426;48.372;10.888;2023-01-28T01:02:41;16.98;;;9.35;;
34152;SDS011;20426;48.372;10.888;2023-01-28T01:03:12;18.17;;;10.02;;
34152;SDS011;20426;48.372;10.888;2023-01-28T01:03:43;20.30;;;10.43;;
34152;SDS011;20426;48.372;10.888;2023-01-28T01:04:14;21.95;;;10.32;;
34152;SDS011;20426;48.372;10.888;2023-01-28T01:04:55;18.45;;;10.07;;
34152;SDS011;20426;48.372;10.888;2023-01-28T01:05:29;20.05;;;11.45;;
34152;SDS011;20426;48.372;10.888;2023-01-28T01:06:00;18.63;;;10.20;;
34152;SDS011;20426;48.372;10.888;2023-01-28T01:06:32;20.98;;;10.43;;
34152;SDS011;20426;48.372;10.888;2023-01-28T01:07:04;19.50;;;10.63;;
34152;SDS011;20426;48.372;10.888;2023-01-28T01:07:35;19.95;;;10.10;;
34152;SDS011;20426;48.372;10.888;2023-01-28T01:08:15;20.00;;;10.57;;
34152;SDS011;20426;48.372;10.888;2023-01-28T01:08:46;20.45;;;10.68;;
34152;SDS011;20426;48.372;10.888;2023-01-28T01:09:19;21.00;;;10.73;;
34152;SDS011;20426;48.372;10.888;2023-01-28T01:09:51;18.10;;;10.10;;
34152;SDS011;20426;48.372;10.888;2023-01-28T01:10:22;19.73;;;10.52;;
34152;SDS011;20426;48.372;10.888;2023-01-28T01:10:57;22.63;;;11.10;;
34152;SDS011;20426;48.372;10.888;2023-01-28T01:11:28;18.48;;;10.25;;
34152;SDS011;20426;48.372;10.888;2023-01-28T01:11:59;22.25;;;10.40;;
34152;SDS011;20426;48.372;10.888;2023-01-28T01:12:30;26.27;;;11.52;;
34152;SDS011;20426;48.372;10.888;2023-01-28T01:13:01;21.55;;;9.85;;
34152;SDS011;20426;48.372;10.888;2023-01-28T01:13:32;19.10;;;11.00;;
34152;SDS011;20426;48.372;10.888;2023-01-28T01:14:05;18.17;;;9.63;;
34152;SDS011;20426;48.372;10.888;2023-01-28T01:14:36;18.75;;;10.07;;
34152;SDS011;20426;48.372;10.888;2023-01-28T01:15:07;22.63;;;11.00;;
34152;SDS011;20426;48.372;10.888;2023-01-28T01:15:39;20.83;;;10.27;;
34152;SDS011;20426;48.372;10.888;2023-01-28T01:16:10;21.90;;;10.65;;
34152;SDS011;20426;48.372;10.888;2023-01-28T01:16:43;17.95;;;10.40;;
34152;SDS011;20426;48.372;10.888;2023-01-28T01:17:15;18.73;;;10.57;;
34152;SDS011;20426;48.372;10.888;2023-01-28T01:17:47;22.00;;;10.32;;
34152;SDS011;20426;48.372;10.888;2023-01-28T01:18:18;21.95;;;11.20;;
34152;SDS011;20426;48.372;10.888;2023-01-28T01:18:50;27.10;;;12.43;;
34152;SDS011;20426;48.372;10.888;2023-01-28T01:19:22;20.85;;;11.45;;
34152;SDS011;20426;48.372;10.888;2023-01-28T01:19:52;19.92;;;10.20;;
34152;SDS011;20426;48.372;10.888;2023-01-28T01:20:24;20.17;;;10.40;;
34152;SDS011;20426;48.372;10.888;2023-01-28T01:20:57;22.88;;;11.43;;
34152;SDS011;20426;48.372;10.888;2023-01-28T01:21:28;22.33;;;11.07;;
34152;SDS011;20426;48.372;10.888;2023-01-28T01:21:59;20.50;;;11.05;;
34152;SDS011;20426;48.372;10.888;2023-01-28T01:22:34;25.95;;;12.60;;
34152;SDS011;20426;48.372;10.888;2023-01-28T01:23:05;18.83;;;11.05;;
34152;SDS011;20426;48.372;10.888;2023-01-28T01:23:36;21.23;;;11.52;;
34152;SDS011;20426;48.372;10.888;2023-01-28T01:24:07;20.98;;;10.50;;
34152;SDS011;20426;48.372;10.888;2023-01-28T01:24:38;23.90;;;11.90;;
34152;SDS011;20426;48.372;10.888;2023-01-28T01:25:09;22.52;;;11.98;;
34152;SDS011;20426;48.372;10.888;2023-01-28T01:25:41;23.40;;;11.15;;
34152;SDS011;20426;48.372;10.888;2023-01-28T01:26:12;23.75;;;11.50;;
34152;SDS011;20426;48.372;10.888;2023-01-28T01:26:43;21.60;;;10.30;;
34152;SDS011;20426;48.372;10.888;2023-01-28T01:27:14;23.00;;;11.30;;
34152;SDS011;20426;48.372;10.888;2023-01-28T01:27:46;20.83;;;11.13;;
34152;SDS011;20426;48.372;10.888;2023-01-28T01:28:18;20.30;;;11.05;;
34152;SDS011;20426;48.372;10.888;2023-01-28T01:28:50;20.00;;;12.13;;
34152;SDS011;20426;48.372;10.888;2023-01-28T01:29:21;21.13;;;10.63;;
34152;SDS011;20426;48.372;10.888;2023-01-28T01:29:52;19.33;;;11.10;;
34152;SDS011;20426;48.372;10.888;2023-01-28T01:30:22;19.30;;;10.35;;
34152;SDS011;20426;48.372;10.888;2023-01-28T01:31:00;22.40;;;11.05;;
34152;SDS011;20426;48.372;10.888;2023-01-28T01:31:31;21.40;;;11.30;;
34152;SDS011;20426;48.372;10.888;2023-01-28T01:32:02;21.75;;;10.35;;
34152;SDS011;20426;48.372;10.888;2023-01-28T01:32:33;20.30;;;11.18;;
34152;SDS011;20426;48.372;10.888;2023-01-28T01:33:04;18.77;;;10.05;;
34152;SDS011;20426;48.372;10.888;2023-01-28T01:33:35;17.10;;;10.35;;
34152;SDS011;20426;48.372;10.888;2023-01-28T01:34:06;22.40;;;10.73;;
34152;SDS011;20426;48.372;10.888;2023-01-28T01:34:38;21.98;;;11.45;;
34152;SDS011;20426;48.372;10.888;2023-01-28T01:35:09;20.45;;;9.93;;
34152;SDS011;20426;48.372;10.888;2023-01-28T01:35:40;22.92;;;11.02;;
34152;SDS011;20426;48.372;10.888;2023-01-28T01:36:12;21.30;;;10.65;;
34152;SDS011;20426;48.372;10.888;2023-01-28T01:36:44;18.95;;;10.55;;
34152;SDS011;20426;48.372;10.888;2023-01-28T01:37:14;21.40;;;11.15;;
34152;SDS011;20426;48.372;10.888;2023-01-28T01:37:45;23.17;;;11.32;;
34152;SDS011;20426;48.372;10.888;2023-01-28T01:38:16;21.15;;;11.13;;
34152;SDS011;20426;48.372;10.888;2023-01-28T01:38:46;17.75;;;9.93;;
34152;SDS011;20426;48.372;10.888;2023-01-28T01:39:17;22.15;;;10.57;;
34152;SDS011;20426;48.372;10.888;2023-01-28T01:39:48;19.27;;;10.32;;
34152;SDS011;20426;48.372;10.888;2023-01-28T01:40:19;18.38;;;10.85;;
34152;SDS011;20426;48.372;10.888;2023-01-28T01:40:50;20.40;;;11.40;;
34152;SDS011;20426;48.372;10.888;2023-01-28T01:41:22;25.23;;;11.32;;
34152;SDS011;20426;48.372;10.888;2023-01-28T01:41:54;21.27;;;10.38;;
34152;SDS011;20426;48.372;10.888;2023-01-28T01:42:25;17.33;;;9.43;;
34152;SDS011;20426;48.372;10.888;2023-01-28T01:42:56;20.88;;;9.38;;
34152;SDS011;20426;48.372;10.888;2023-01-28T01:45:20;18.83;;;10.13;;
34152;SDS011;20426;48.372;10.888;2023-01-28T01:45:52;19.63;;;9.75;;
34152;SDS011;20426;48.372;10.888;2023-01-28T01:47:20;16.42;;;8.73;;
34152;SDS011;20426;48.372;10.888;2023-01-28T01:48:01;22.30;;;10.55;;
34152;SDS011;20426;48.372;10.888;2023-01-28T01:48:39;18.88;;;9.50;;
34152;SDS011;20426;48.372;10.888;2023-01-28T01:49:15;18.13;;;10.35;;
34152;SDS011;20426;48.372;10.888;2023-01-28T01:49:51;20.25;;;10.60;;
34152;SDS011;20426;48.372;10.888;2023-01-28T01:50:29;20.23;;;10.73;;
34152;SDS011;20426;48.372;10.888;2023-01-28T01:51:09;18.58;;;9.82;;
34152;SDS011;20426;48.372;10.888;2023-01-28T01:51:45;17.45;;;9.13;;
34152;SDS011;20426;48.372;10.888;2023-01-28T01:52:22;24.40;;;11.50;;
34152;SDS011;20426;48.372;10.888;2023-01-28T01:52:56;19.60;;;9.75;;
34152;SDS011;20426;48.372;10.888;2023-01-28T01:53:34;19.45;;;10.23;;
34152;SDS011;20426;48.372;10.888;2023-01-28T01:54:09;18.17;;;10.52;;
34152;SDS011;20426;48.372;10.888;2023-01-28T01:54:40;22.27;;;11.13;;
34152;SDS011;20426;48.372;10.888;2023-01-28T01:55:16;19.13;;;10.32;;
34152;SDS011;20426;48.372;10.888;2023-01-28T01:55:50;19.05;;;9.68;;
34152;SDS011;20426;48.372;10.888;2023-01-28T01:56:25;21.23;;;10.23;;
34152;SDS011;20426;48.372;10.888;2023-01-28T01:57:02;20.90;;;11.02;;
34152;SDS011;20426;48.372;10.888;2023-01-28T01:57:36;19.45;;;11.32;;
34152;SDS011;20426;48.372;10.888;2023-01-28T01:58:08;16.35;;;9.70;;
34152;SDS011;20426;48.372;10.888;2023-01-28T01:58:45;18.63;;;10.00;;
34152;SDS011;20426;48.372;10.888;2023-01-28T01:59:21;21.58;;;10.77;;
34152;SDS011;20426;48.372;10.888;2023-01-28T01:59:56;18.80;;;10.30;;
34152;SDS011;20426;48.372;10.888;2023-01-28T02:00:35;19.02;;;9.38;;
34152;SDS011;20426;48.372;10.888;2023-01-28T02:01:06;19.90;;;9.73;;
34152;SDS011;20426;48.372;10.888;2023-01-28T02:01:36;17.52;;;9.35;;
34152;SDS011;20426;48.372;10.888;2023-01-28T02:02:08;19.05;;;10.43;;
34152;SDS011;20426;48.372;10.888;2023-01-28T02:02:42;19.23;;;10.85;;
34152;SDS011;20426;48.372;10.888;2023-01-28T02:03:16;24.00;;;11.00;;
34152;SDS011;20426;48.372;10.888;2023-01-28T02:03:56;22.63;;;9.40;;
34152;SDS011;20426;48.372;10.888;2023-01-28T02:04:34;21.42;;;10.05;;
34152;SDS011;20426;48.372;10.888;2023-01-28T02:05:10;19.15;;;10.18;;
34152;SDS011;20426;48.372;10.888;2023-01-28T02:05:42;21.58;;;10.95;;
34152;SDS011;20426;48.372;10.888;2023-01-28T02:06:13;20.40;;;9.88;;
34152;SDS011;20426;48.372;10.888;2023-01-28T02:06:44;21.25;;;10.90;;
34152;SDS011;20426;48.372;10.888;2023-01-28T02:07:16;20.80;;;11.20;;
34152;SDS011;20426;48.372;10.888;2023-01-28T02:07:50;18.98;;;10.50;;
34152;SDS011;20426;48.372;10.888;2023-01-28T02:08:42;18.35;;;9.13;;
34152;SDS011;20426;48.372;10.888;2023-01-28T02:09:21;17.00;;;9.70;;
34152;SDS011;20426;48.372;10.888;2023-01-28T02:10:05;18.80;;;9.57;;
34152;SDS011;20426;48.372;10.888;2023-01-28T02:10:37;19.48;;;10.25;;
34152;SDS011;20426;48.372;10.888;2023-01-28T02:11:07;18.27;;;9.55;;
34152;SDS011;20426;48.372;10.888;2023-01-28T02:11:39;18.63;;;10.73;;
34152;SDS011;20426;48.372;10.888;2023-01-28T02:12:15;16.42;;;9.27;;
34152;SDS011;20426;48.372;10.888;2023-01-28T02:12:54;19.30;;;10.15;;
34152;SDS011;20426;48.372;10.888;2023-01-28T02:13:31;16.95;;;9.88;;
34152;SDS011;20426;48.372;10.888;2023-01-28T02:14:08;17.73;;;9.32;;
34152;SDS011;20426;48.372;10.888;2023-01-28T02:15:39;16.33;;;8.95;;
34152;SDS011;20426;48.372;10.888;2023-01-28T02:16:11;18.25;;;9.77;;
34152;SDS011;20426;48.372;10.888;2023-01-28T02:16:42;17.55;;;10.05;;
34152;SDS011;20426;48.372;10.888;2023-01-28T02:17:13;23.45;;;10.77;;
34152;SDS011;20426;48.372;10.888;2023-01-28T02:17:45;21.70;;;10.15;;
34152;SDS011;20426;48.372;10.888;2023-01-28T02:18:18;22.95;;;10.93;;
34152;SDS011;20426;48.372;10.888;2023-01-28T02:18:49;17.50;;;8.80;;
34152;SDS011;20426;48.372;10.888;2023-01-28T02:19:20;19.90;;;9.55;;
34152;SDS011;20426;48.372;10.888;2023-01-28T02:19:59;19.10;;;9.95;;
34152;SDS011;20426;48.372;10.888;2023-01-28T02:20:50;16.98;;;9.43;;
34152;SDS011;20426;48.372;10.888;2023-01-28T02:26:11;17.85;;;9.95;;
34152;SDS011;20426;48.372;10.888;2023-01-28T02:27:21;12.52;;;7.05;;
34152;SDS011;20426;48.372;10.888;2023-01-28T02:28:51;19.35;;;10.00;;
34152;SDS011;20426;48.372;10.888;2023-01-28T02:30:28;18.50;;;8.90;;
34152;SDS011;20426;48.372;10.888;2023-01-28T02:32:28;17.30;;;8.82;;
34152;SDS011;20426;48.372;10.888;2023-01-28T02:32:45;15.80;;;8.80;;
34152;SDS011;20426;48.372;10.888;2023-01-28T02:33:27;17.63;;;9.52;;
34152;SDS011;20426;48.372;10.888;2023-01-28T02:34:05;17.88;;;8.95;;
34152;SDS011;20426;48.372;10.888;2023-01-28T02:34:44;18.98;;;9.35;;
34152;SDS011;20426;48.372;10.888;2023-01-28T02:35:39;17.60;;;8.40;;
34152;SDS011;20426;48.372;10.888;2023-01-28T02:37:20;27.70;;;9.40;;
34152;SDS011;20426;48.372;10.888;2023-01-28T02:38:14;15.13;;;7.82;;
34152;SDS011;20426;48.372;10.888;2023-01-28T02:38:50;16.58;;;9.15;;
34152;SDS011;20426;48.372;10.888;2023-01-28T02:39:25;15.02;;;9.40;;
34152;SDS011;20426;48.372;10.888;2023-01-28T02:40:29;18.38;;;9.45;;
34152;SDS011;20426;48.372;10.888;2023-01-28T02:41:04;16.00;;;8.25;;
34152;SDS011;20426;48.372;10.888;2023-01-28T02:41:45;19.63;;;9.35;;
34152;SDS011;20426;48.372;10.888;2023-01-28T02:42:24;18.00;;;9.02;;
34152;SDS011;20426;48.372;10.888;2023-01-28T02:43:04;16.23;;;8.80;;
34152;SDS011;20426;48.372;10.888;2023-01-28T02:43:36;18.90;;;9.85;;
34152;SDS011;20426;48.372;10.888;2023-01-28T02:44:11;17.10;;;9.20;;
34152;SDS011;20426;48.372;10.888;2023-01-28T02:44:42;15.98;;;9.13;;
34152;SDS011;20426;48.372;10.888;2023-01-28T02:45:20;18.73;;;9.15;;
34152;SDS011;20426;48.372;10.888;2023-01-28T02:45:53;18.88;;;9.57;;
34152;SDS011;20426;48.372;10.888;2023-01-28T02:46:42;16.05;;;8.45;;
34152;SDS011;20426;48.372;10.888;2023-01-28T02:47:31;18.00;;;8.60;;
34152;SDS011;20426;48.372;10.888;2023-01-28T02:48:21;16.65;;;8.38;;
34152;SDS011;20426;48.372;10.888;2023-01-28T02:48:52;15.38;;;8.68;;
34152;SDS011;20426;48.372;10.888;2023-01-28T02:49:30;18.15;;;9.60;;
34152;SDS011;20426;48.372;10.888;2023-01-28T02:50:16;20.05;;;9.07;;
34152;SDS011;20426;48.372;10.888;2023-01-28T02:51:34;21.98;;;9.63;;
34152;SDS011;20426;48.372;10.888;2023-01-28T02:52:29;15.32;;;8.45;;
34152;SDS011;20426;48.372;10.888;2023-01-28T02:53:27;15.43;;;7.72;;
34152;SDS011;20426;48.372;10.888;2023-01-28T02:56:03;20.38;;;7.93;;
34152;SDS011;20426;48.372;10.888;2023-01-28T02:56:47;16.77;;;9.07;;
34152;SDS011;20426;48.372;10.888;2023-01-28T02:58:25;17.40;;;8.13;;
34152;SDS011;20426;48.372;10.888;2023-01-28T02:59:23;17.63;;;9.20;;
34152;SDS011;20426;48.372;10.888;2023-01-28T03:03:59;14.75;;;8.07;;
34152;SDS011;20426;48.372;10.888;2023-01-28T03:04:48;19.50;;;9.15;;
34152;SDS011;20426;48.372;10.888;2023-01-28T03:05:38;16.08;;;8.50;;
34152;SDS011;20426;48.372;10.888;2023-01-28T03:06:52;19.40;;;8.57;;
34152;SDS011;20426;48.372;10.888;2023-01-28T03:07:28;14.77;;;8.02;;
34152;SDS011;20426;48.372;10.888;2023-01-28T03:08:02;18.30;;;8.65;;
34152;SDS011;20426;48.372;10.888;2023-01-28T03:08:57;19.83;;;9.25;;
34152;SDS011;20426;48.372;10.888;2023-01-28T03:09:48;18.33;;;8.02;;
34152;SDS011;20426;48.372;10.888;2023-01-28T03:10:21;21.30;;;9.77;;
34152;SDS011;20426;48.372;10.888;2023-01-28T03:10:55;18.17;;;9.40;;
34152;SDS011;20426;48.372;10.888;2023-01-28T03:12:38;11.95;;;7.35;;
34152;SDS011;20426;48.372;10.888;2023-01-28T03:13:29;18.20;;;9.05;;
34152;SDS011;20426;48.372;10.888;2023-01-28T03:14:19;14.40;;;8.05;;
34152;SDS011;20426;48.372;10.888;2023-01-28T03:15:12;18.80;;;7.38;;
34152;SDS011;20426;48.372;10.888;2023-01-28T03:16:28;15.25;;;7.30;;
34152;SDS011;20426;48.372;10.888;2023-01-28T03:18:27;16.98;;;8.35;;
34152;SDS011;20426;48.372;10.888;2023-01-28T03:19:24;19.10;;;8.43;;
34152;SDS011;20426;48.372;10.888;2023-01-28T03:20:13;20.08;;;8.60;;
34152;SDS011;20426;48.372;10.888;2023-01-28T03:21:05;16.23;;;8.70;;
34152;SDS011;20426;48.372;10.888;2023-01-28T03:22:00;13.27;;;7.57;;
34152;SDS011;20426;48.372;10.888;2023-01-28T03:22:50;16.90;;;9.07;;
34152;SDS011;20426;48.372;10.888;2023-01-28T03:24:52;16.10;;;8.00;;
34152;SDS011;20426;48.372;10.888;2023-01-28T03:25:43;18.75;;;8.98;;
34152;SDS011;20426;48.372;10.888;2023-01-28T03:26:36;17.25;;;8.00;;
34152;SDS011;20426;48.372;10.888;2023-01-28T03:27:33;15.25;;;7.40;;
34152;SDS011;20426;48.372;10.888;2023-01-28T03:28:32;13.98;;;7.50;;
34152;SDS011;20426;48.372;10.888;2023-01-28T03:29:24;17.88;;;8.98;;
34152;SDS011;20426;48.372;10.888;2023-01-28T03:30:21;16.08;;;8.88;;
34152;SDS011;20426;48.372;10.888;2023-01-28T03:31:16;16.55;;;8.18;;
34152;SDS011;20426;48.372;10.888;2023-01-28T03:32:07;17.45;;;8.95;;
34152;SDS011;20426;48.372;10.888;2023-01-28T03:32:58;13.90;;;8.18;;
34152;SDS011;20426;48.372;10.888;2023-01-28T03:33:49;21.65;;;8.32;;
34152;SDS011;20426;48.372;10.888;2023-01-28T03:34:40;16.88;;;7.93;;
34152;SDS011;20426;48.372;10.888;2023-01-28T03:35:30;18.83;;;8.20;;
34152;SDS011;20426;48.372;10.888;2023-01-28T03:36:22;19.27;;;8.23;;
34152;SDS011;20426;48.372;10.888;2023-01-28T03:37:11;16.60;;;8.45;;
34152;SDS011;20426;48.372;10.888;2023-01-28T03:37:44;16.45;;;8.95;;
34152;SDS011;20426;48.372;10.888;2023-01-28T03:38:15;17.40;;;9.35;;
34152;SDS011;20426;48.372;10.888;2023-01-28T03:38:50;14.48;;;8.23;;
34152;SDS011;20426;48.372;10.888;2023-01-28T03:39:24;19.83;;;10.30;;
34152;SDS011;20426;48.372;10.888;2023-01-28T03:40:00;18.27;;;10.43;;
34152;SDS011;20426;48.372;10.888;2023-01-28T03:40:34;17.45;;;9.27;;
34152;SDS011;20426;48.372;10.888;2023-01-28T03:41:05;17.52;;;8.40;;
34152;SDS011;20426;48.372;10.888;2023-01-28T03:41:35;18.65;;;9.40;;
34152;SDS011;20426;48.372;10.888;2023-01-28T03:42:07;19.30;;;9.98;;
34152;SDS011;20426;48.372;10.888;2023-01-28T03:42:41;16.73;;;8.93;;
34152;SDS011;20426;48.372;10.888;2023-01-28T03:43:11;16.55;;;8.80;;
34152;SDS011;20426;48.372;10.888;2023-01-28T03:43:42;17.40;;;9.48;;
34152;SDS011;20426;48.372;10.888;2023-01-28T03:44:14;14.90;;;9.05;;
34152;SDS011;20426;48.372;10.888;2023-01-28T03:45:03;17.90;;;9.20;;
34152;SDS011;20426;48.372;10.888;2023-01-28T03:45:36;17.75;;;9.10;;
34152;SDS011;20426;48.372;10.888;2023-01-28T03:46:08;16.13;;;8.50;;
34152;SDS011;20426;48.372;10.888;2023-01-28T03:46:38;16.45;;;9.85;;
34152;SDS011;20426;48.372;10.888;2023-01-28T03:47:10;18.80;;;10.30;;
34152;SDS011;20426;48.372;10.888;2023-01-28T03:47:41;20.23;;;9.30;;
34152;SDS011;20426;48.372;10.888;2023-01-28T03:48:13;13.32;;;8.50;;
34152;SDS011;20426;48.372;10.888;2023-01-28T03:48:44;18.13;;;8.98;;
34152;SDS011;20426;48.372;10.888;2023-01-28T03:49:15;16.65;;;10.27;;